Time;durP1;ratioP1;P1;durP2;ratioP2;P2;SDS_P1;SDS_P2;PMS_P1;PMS_P2;Temp;Humidity;BMP_temperature;BMP_pressure;BME280_temperature;BME280_humidity;BME280_pressure;Samples;Min_cycle;Max_cycle;Signal;HPM_P1;HPM_P2
2023/07/27 00:01:28;;;;;;;2.97;2.67;;;22.30;57.10;23.10;100269.00;;;;6271860;22;20236;-54
2023/07/27 00:03:54;;;;;;;2.80;2.60;;;22.30;57.10;23.10;100271.00;;;;6270744;22;20590;-55
2023/07/27 00:06:21;;;;;;;3.00;2.80;;;22.30;57.10;23.00;100251.00;;;;6269541;22;20141;-55
2023/07/27 00:08:46;;;;;;;2.80;2.60;;;22.20;57.00;23.00;100261.00;;;;6271149;22;20377;-55
2023/07/27 00:11:12;;;;;;;2.83;2.63;;;22.30;57.10;23.00;100255.00;;;;6269660;22;20180;-54
2023/07/27 00:13:38;;;;;;;2.97;2.77;;;22.20;57.10;23.00;100267.00;;;;6269261;22;20145;-54
2023/07/27 00:16:04;;;;;;;3.07;2.87;;;22.20;57.10;23.00;100246.00;;;;6269323;22;20785;-54
2023/07/27 00:18:30;;;;;;;2.73;2.53;;;22.20;57.10;23.00;100261.00;;;;6271120;22;20183;-55
2023/07/27 00:20:56;;;;;;;2.90;2.70;;;22.20;57.10;23.00;100255.00;;;;6270508;22;20221;-55
2023/07/27 00:23:22;;;;;;;2.77;2.47;;;22.20;57.10;23.00;100244.00;;;;6271462;22;20676;-54
2023/07/27 00:25:48;;;;;;;2.63;2.43;;;22.20;57.00;23.00;100250.00;;;;6271524;22;20563;-55
2023/07/27 00:28:14;;;;;;;2.70;2.50;;;22.20;57.10;23.00;100243.00;;;;6271794;22;20478;-54
2023/07/27 00:30:39;;;;;;;2.47;2.30;;;22.20;57.00;23.00;100243.00;;;;6271887;22;20145;-55
2023/07/27 00:33:05;;;;;;;3.07;2.80;;;22.20;57.10;23.00;100236.00;;;;6271896;22;20179;-55
2023/07/27 00:35:31;;;;;;;2.83;2.63;;;22.20;57.00;23.00;100235.00;;;;6271401;22;20183;-55
2023/07/27 00:37:56;;;;;;;2.70;2.50;;;22.20;57.10;23.00;100232.00;;;;6271486;22;20184;-54
2023/07/27 00:40:22;;;;;;;2.63;2.43;;;22.20;57.00;23.00;100231.00;;;;6271493;22;20315;-54
2023/07/27 00:42:48;;;;;;;2.97;2.67;;;22.20;57.10;23.00;100232.00;;;;6271908;22;20605;-55
2023/07/27 00:45:14;;;;;;;2.90;2.70;;;22.20;57.00;22.90;100232.00;;;;6272227;22;20605;-55
2023/07/27 00:47:39;;;;;;;2.50;2.30;;;22.20;57.10;22.90;100224.00;;;;6271450;22;20156;-55
2023/07/27 00:50:05;;;;;;;2.93;2.63;;;22.20;57.10;22.90;100223.00;;;;6269590;22;20222;-55
2023/07/27 00:52:31;;;;;;;2.90;2.60;;;22.10;57.00;22.90;100215.00;;;;6269638;22;20499;-54
2023/07/27 00:54:57;;;;;;;2.83;2.63;;;22.10;57.00;22.90;100217.00;;;;6271200;22;20181;-55
2023/07/27 00:57:22;;;;;;;2.60;2.40;;;22.10;57.00;22.90;100212.00;;;;6243843;22;20199;-56
2023/07/27 00:59:48;;;;;;;2.77;2.57;;;22.20;57.10;22.90;100217.00;;;;6244297;22;20172;-54
2023/07/27 01:02:14;;;;;;;2.80;2.60;;;22.10;57.10;22.90;100204.00;;;;6269914;22;20179;-55
2023/07/27 01:04:40;;;;;;;2.80;2.60;;;22.10;57.00;22.90;100195.00;;;;6271510;22;20152;-54
2023/07/27 01:07:05;;;;;;;2.83;2.63;;;22.10;57.10;22.80;100205.00;;;;6274195;22;20149;-54
2023/07/27 01:09:31;;;;;;;2.70;2.50;;;22.10;57.10;22.80;100209.00;;;;6228458;22;20172;-54
2023/07/27 01:12:03;;;;;;;2.93;2.63;;;22.10;57.10;22.80;100203.00;;;;6269438;22;20211;-54
2023/07/27 01:14:46;;;;;;;2.70;2.50;;;22.10;57.20;22.80;100202.00;;;;6269871;22;20141;-55
2023/07/27 01:17:24;;;;;;;2.50;2.30;;;22.10;57.20;22.80;100191.00;;;;6269139;22;20160;-53
2023/07/27 01:20:10;;;;;;;3.00;2.70;;;22.10;57.20;22.80;100190.00;;;;6269833;22;20192;-56
2023/07/27 01:23:37;;;;;;;2.53;2.33;;;22.10;57.20;22.80;100194.00;;;;6274922;22;20144;-54
2023/07/27 01:26:44;;;;;;;2.80;2.60;;;22.10;57.30;22.70;100186.00;;;;6271688;22;20165;-54
2023/07/27 01:29:44;;;;;;;2.90;2.70;;;22.10;57.30;22.70;100187.00;;;;6269595;22;20165;-54
2023/07/27 01:32:10;;;;;;;3.00;2.80;;;22.00;57.20;22.70;100182.00;;;;6260888;22;20149;-55
2023/07/27 01:34:35;;;;;;;2.67;2.47;;;22.00;57.30;22.70;100167.00;;;;6244159;22;20150;-54
2023/07/27 01:37:05;;;;;;;2.60;2.40;;;22.00;57.30;22.60;100182.00;;;;6244146;22;20538;-55
2023/07/27 01:39:38;;;;;;;3.43;2.43;;;22.00;57.30;22.70;100185.00;;;;6219022;22;20161;-54
2023/07/27 01:42:04;;;;;;;2.80;2.60;;;22.00;57.30;22.70;100170.00;;;;6219737;22;20208;-54
2023/07/27 01:44:31;;;;;;;2.90;2.70;;;22.00;57.30;22.70;100176.00;;;;6269293;22;20231;-54
2023/07/27 01:46:56;;;;;;;2.70;2.50;;;22.00;57.30;22.70;100166.00;;;;6269095;22;20153;-54
2023/07/27 01:49:22;;;;;;;2.93;2.57;;;21.90;57.30;22.60;100170.00;;;;6243655;22;20196;-55
2023/07/27 01:51:48;;;;;;;2.60;2.40;;;22.00;57.40;22.60;100170.00;;;;6218461;22;20183;-55
2023/07/27 01:54:14;;;;;;;2.83;2.60;;;22.00;57.40;22.60;100165.00;;;;6218787;22;20149;-54
2023/07/27 01:56:40;;;;;;;2.60;2.40;;;22.00;57.40;22.60;100164.00;;;;6271272;22;20149;-56
2023/07/27 01:59:06;;;;;;;2.67;2.47;;;22.00;57.40;22.60;100151.00;;;;6269208;22;20200;-55
2023/07/27 02:01:32;;;;;;;2.70;2.50;;;21.90;57.30;22.60;100145.00;;;;6268899;22;20142;-55
2023/07/27 02:03:58;;;;;;;3.10;2.80;;;21.90;57.30;22.60;100170.00;;;;6268913;22;20152;-55
2023/07/27 02:06:24;;;;;;;2.80;2.60;;;21.90;57.40;22.60;100153.00;;;;6268260;22;20145;-55
2023/07/27 02:08:49;;;;;;;2.90;2.60;;;21.90;57.40;22.60;100152.00;;;;6270447;22;20192;-54
2023/07/27 02:11:16;;;;;;;2.80;2.60;;;21.90;57.30;22.60;100149.00;;;;6270618;22;20149;-54
2023/07/27 02:13:54;;;;;;;2.60;2.40;;;21.90;57.40;22.60;100147.00;;;;6269323;22;20496;-55
2023/07/27 02:16:41;;;;;;;2.83;2.63;;;21.90;57.40;22.60;100146.00;;;;6245946;22;20164;-54
2023/07/27 02:19:07;;;;;;;2.70;2.50;;;21.90;57.40;22.60;100133.00;;;;6268880;22;20191;-55
2023/07/27 02:21:33;;;;;;;2.70;2.50;;;21.90;57.30;22.60;100134.00;;;;6218530;22;20609;-55
2023/07/27 02:23:59;;;;;;;2.60;2.40;;;21.90;57.40;22.60;100136.00;;;;6218268;22;20153;-55
2023/07/27 02:26:25;;;;;;;2.57;2.37;;;21.90;57.50;22.60;100151.00;;;;6243325;22;20195;-55
2023/07/27 02:28:51;;;;;;;4.77;2.53;;;21.90;57.50;22.60;100138.00;;;;6269015;22;20169;-55
2023/07/27 02:31:17;;;;;;;2.70;2.50;;;21.90;57.50;22.60;100151.00;;;;6269517;22;20153;-55
2023/07/27 02:33:42;;;;;;;2.60;2.40;;;21.90;57.50;22.60;100148.00;;;;6270617;22;20593;-55
2023/07/27 02:36:08;;;;;;;2.77;2.57;;;21.90;57.50;22.60;100147.00;;;;6270277;22;20172;-54
2023/07/27 02:38:34;;;;;;;3.17;2.47;;;21.90;58.10;22.60;100155.00;;;;6270064;22;20633;-55
2023/07/27 02:40:59;;;;;;;2.67;2.20;;;21.90;57.60;22.50;100145.00;;;;6270644;22;20141;-54
2023/07/27 02:43:25;;;;;;;2.83;2.50;;;21.90;57.60;22.60;100146.00;;;;6270592;22;20152;-54
2023/07/27 02:45:58;;;;;;;2.60;2.40;;;21.80;57.50;22.50;100156.00;;;;6270376;22;20145;-54
2023/07/27 02:48:24;;;;;;;2.60;2.40;;;21.90;57.60;22.50;100144.00;;;;6270939;22;20169;-54
2023/07/27 02:50:51;;;;;;;2.87;2.67;;;21.80;57.50;22.30;100142.00;;;;6268754;22;20146;-54
2023/07/27 02:53:16;;;;;;;2.80;2.40;;;21.80;57.50;22.50;100152.00;;;;6270267;22;20232;-53
2023/07/27 02:55:42;;;;;;;2.53;2.33;;;21.80;57.50;22.50;100151.00;;;;6268394;22;20227;-55
2023/07/27 02:58:08;;;;;;;3.27;2.40;;;21.80;57.60;22.50;100148.00;;;;6270174;22;20184;-54
2023/07/27 03:00:34;;;;;;;3.00;2.50;;;21.80;57.70;22.50;100143.00;;;;6270451;22;20152;-55
2023/07/27 03:03:00;;;;;;;2.57;2.37;;;21.80;57.70;22.50;100153.00;;;;6271839;22;20141;-53
2023/07/27 03:05:27;;;;;;;2.67;2.47;;;21.80;57.70;22.50;100140.00;;;;6270160;22;20690;-53
2023/07/27 03:07:52;;;;;;;2.80;2.60;;;21.80;57.80;22.50;100145.00;;;;6271955;22;20684;-53
2023/07/27 03:10:18;;;;;;;2.60;2.40;;;21.80;57.80;22.50;100146.00;;;;6272094;22;20145;-53
2023/07/27 03:12:44;;;;;;;2.90;2.60;;;21.80;57.80;22.40;100143.00;;;;6281101;22;20156;-53
2023/07/27 03:15:10;;;;;;;2.70;2.50;;;21.80;57.90;22.50;100133.00;;;;6283569;22;20160;-53
2023/07/27 03:17:35;;;;;;;2.43;2.23;;;21.80;57.90;22.40;100144.00;;;;6271772;22;20255;-54
2023/07/27 03:20:01;;;;;;;2.60;2.40;;;21.80;57.90;22.40;100141.00;;;;6265617;22;20272;-54
2023/07/27 03:22:27;;;;;;;2.90;2.40;;;21.70;57.80;22.40;100135.00;;;;6271348;22;20671;-54
2023/07/27 03:24:53;;;;;;;2.70;2.50;;;21.80;57.90;22.40;100127.00;;;;6269907;22;20141;-54
2023/07/27 03:27:18;;;;;;;3.03;2.33;;;21.80;58.00;22.40;100123.00;;;;6274556;22;20153;-54
2023/07/27 03:29:44;;;;;;;2.67;2.40;;;21.80;58.10;22.40;100124.00;;;;6277245;22;20188;-54
2023/07/27 03:32:10;;;;;;;2.67;2.40;;;21.70;58.10;22.40;100102.00;;;;6242515;22;20153;-54
2023/07/27 03:34:35;;;;;;;3.60;2.70;;;21.70;58.10;22.40;100105.00;;;;6268969;22;20285;-54
2023/07/27 03:37:01;;;;;;;2.67;2.47;;;21.70;58.10;22.40;100095.00;;;;6270508;22;20204;-54
2023/07/27 03:39:27;;;;;;;2.60;2.40;;;21.70;58.10;22.40;100100.00;;;;6270400;22;20184;-54
2023/07/27 03:41:53;;;;;;;2.60;2.40;;;21.70;58.00;22.40;100094.00;;;;6271574;22;20156;-53
2023/07/27 03:44:19;;;;;;;2.67;2.47;;;21.70;58.00;22.40;100092.00;;;;6271123;22;20489;-54
2023/07/27 03:46:44;;;;;;;3.20;2.50;;;21.70;58.10;22.40;100080.00;;;;6271668;22;20142;-55
2023/07/27 03:49:10;;;;;;;2.70;2.50;;;21.70;58.10;22.40;100084.00;;;;6272299;22;20188;-55
2023/07/27 03:51:36;;;;;;;2.60;2.40;;;21.70;58.10;22.30;100084.00;;;;6273146;22;20149;-54
2023/07/27 03:54:01;;;;;;;2.70;2.50;;;21.70;58.10;22.40;100077.00;;;;6272626;22;20149;-55
2023/07/27 03:56:27;;;;;;;3.77;2.57;;;21.70;58.10;22.30;100081.00;;;;6270946;22;20620;-55
2023/07/27 03:58:53;;;;;;;2.60;2.40;;;21.60;58.00;22.30;100073.00;;;;6272846;22;20184;-54
2023/07/27 04:01:19;;;;;;;2.67;2.40;;;21.70;58.10;22.30;100068.00;;;;6270918;22;20144;-54
2023/07/27 04:03:45;;;;;;;4.40;2.53;;;21.60;58.20;22.30;100081.00;;;;6272161;22;20149;-54
2023/07/27 04:06:11;;;;;;;2.80;2.60;;;21.60;58.20;22.30;100075.00;;;;6244641;22;20179;-54
2023/07/27 04:08:36;;;;;;;3.13;2.80;;;21.60;58.60;22.30;100065.00;;;;6273037;22;20180;-53
2023/07/27 04:11:02;;;;;;;2.60;2.40;;;21.60;58.40;22.30;100065.00;;;;6272512;22;20219;-54
2023/07/27 04:13:28;;;;;;;3.50;2.50;;;21.60;58.20;22.30;100052.00;;;;6272191;22;20198;-53
2023/07/27 04:15:53;;;;;;;2.70;2.43;;;21.60;58.20;22.30;100059.00;;;;6271509;22;20489;-53
2023/07/27 04:18:19;;;;;;;2.77;2.50;;;21.60;58.20;22.30;100054.00;;;;6272191;22;20641;-53
2023/07/27 04:20:45;;;;;;;4.73;2.67;;;21.60;58.20;22.30;100056.00;;;;6272435;22;20167;-54
2023/07/27 04:23:10;;;;;;;2.77;2.43;;;21.60;58.30;22.30;100059.00;;;;6272279;22;20152;-54
2023/07/27 04:25:36;;;;;;;3.83;2.70;;;21.60;58.40;22.30;100055.00;;;;6271717;22;20215;-53
2023/07/27 04:28:02;;;;;;;3.60;2.80;;;21.60;58.50;22.20;100051.00;;;;6272927;22;20180;-53
2023/07/27 04:30:28;;;;;;;4.40;2.30;;;21.60;58.50;22.20;100051.00;;;;6272632;22;20632;-53
2023/07/27 04:32:54;;;;;;;4.27;2.50;;;21.60;58.50;22.20;100049.00;;;;6272233;22;20168;-53
2023/07/27 04:35:20;;;;;;;4.33;2.80;;;21.60;58.40;22.20;100046.00;;;;6271714;22;20145;-54
2023/07/27 04:37:45;;;;;;;3.47;2.70;;;21.50;58.20;22.20;100033.00;;;;6271786;22;20173;-54
2023/07/27 04:40:13;;;;;;;5.23;2.80;;;21.60;58.50;22.20;100048.00;;;;6272433;22;20160;-54
2023/07/27 04:42:39;;;;;;;5.30;2.90;;;21.50;58.50;22.20;100043.00;;;;6272166;22;20148;-52
2023/07/27 04:45:05;;;;;;;4.33;2.70;;;21.50;58.90;22.20;100046.00;;;;6271965;22;20145;-52
2023/07/27 04:47:31;;;;;;;4.20;2.63;;;21.50;58.80;22.20;100036.00;;;;6271652;22;20164;-52
2023/07/27 04:49:57;;;;;;;3.83;2.77;;;21.50;58.80;22.20;100025.00;;;;6272045;22;20173;-53
2023/07/27 04:52:22;;;;;;;4.20;2.70;;;21.60;59.00;22.20;100016.00;;;;6271733;22;20152;-54
2023/07/27 04:54:48;;;;;;;3.30;2.70;;;21.60;59.10;22.20;100019.00;;;;6270344;22;20406;-53
2023/07/27 04:57:14;;;;;;;3.23;2.50;;;21.60;59.10;22.20;100002.00;;;;6269461;22;20613;-53
2023/07/27 04:59:39;;;;;;;2.87;2.47;;;21.50;59.10;22.20;99989.00;;;;6272207;22;20215;-53
2023/07/27 05:02:05;;;;;;;3.70;2.53;;;21.50;59.30;22.20;99986.00;;;;6272008;22;20204;-53
2023/07/27 05:04:31;;;;;;;4.67;2.70;;;21.50;59.50;22.20;99979.00;;;;6271440;22;20622;-54
2023/07/27 05:06:57;;;;;;;3.00;2.53;;;21.50;59.50;22.20;99969.00;;;;6271361;22;20661;-53
2023/07/27 05:09:22;;;;;;;3.93;3.00;;;21.50;59.70;22.20;99969.00;;;;6270606;22;20169;-53
2023/07/27 05:11:48;;;;;;;3.40;2.60;;;21.50;59.90;22.10;99965.00;;;;6272510;22;20715;-54
2023/07/27 05:14:14;;;;;;;3.73;2.83;;;21.50;60.50;22.10;99959.00;;;;6271835;22;20466;-54
2023/07/27 05:16:40;;;;;;;2.77;2.57;;;21.50;59.60;22.10;99954.00;;;;6277891;22;20157;-56
2023/07/27 05:19:05;;;;;;;3.13;2.63;;;21.50;59.70;22.10;99951.00;;;;6273681;22;20188;-53
2023/07/27 05:21:31;;;;;;;3.70;2.77;;;21.40;59.70;22.10;99944.00;;;;6271937;22;20141;-53
2023/07/27 05:23:57;;;;;;;2.70;2.50;;;21.50;59.80;22.10;99942.00;;;;6271727;22;20145;-54
2023/07/27 05:26:22;;;;;;;3.00;2.70;;;21.40;59.60;22.10;99941.00;;;;6271065;22;20144;-54
2023/07/27 05:28:48;;;;;;;2.80;2.60;;;21.40;59.60;22.10;99938.00;;;;6272013;22;20169;-54
2023/07/27 05:31:14;;;;;;;2.97;2.67;;;21.40;59.60;22.10;99927.00;;;;6278775;22;20602;-55
2023/07/27 05:33:40;;;;;;;2.60;2.40;;;21.40;59.60;22.10;99913.00;;;;6272981;22;20145;-55
2023/07/27 05:36:05;;;;;;;3.37;2.60;;;21.40;59.70;22.10;99904.00;;;;6271545;22;20149;-55
2023/07/27 05:38:31;;;;;;;3.00;2.63;;;21.40;59.80;22.10;99915.00;;;;6272211;22;20661;-55
2023/07/27 05:41:00;;;;;;;3.43;2.73;;;21.40;60.00;22.00;99911.00;;;;6271918;22;20590;-54
2023/07/27 05:43:26;;;;;;;3.07;2.57;;;21.40;60.00;22.00;99916.00;;;;6269939;22;20621;-54
2023/07/27 05:45:52;;;;;;;2.70;2.50;;;21.40;60.00;22.00;99838.00;;;;6270714;22;20194;-54
2023/07/27 05:48:17;;;;;;;2.53;2.30;;;21.40;60.00;22.10;99912.00;;;;6271234;22;20168;-54
2023/07/27 05:50:43;;;;;;;3.27;2.50;;;21.40;59.90;22.10;99909.00;;;;6271895;22;20488;-55
2023/07/27 05:53:09;;;;;;;3.10;2.47;;;21.40;60.00;22.10;99890.00;;;;6271488;22;20597;-54
2023/07/27 05:55:35;;;;;;;2.50;2.30;;;21.40;60.00;22.10;99901.00;;;;6270640;22;20203;-54
2023/07/27 05:58:00;;;;;;;3.33;2.30;;;21.40;59.90;22.10;99893.00;;;;6271633;22;20226;-55
2023/07/27 06:00:26;;;;;;;2.90;2.30;;;21.30;59.80;22.10;99897.00;;;;6271372;22;20148;-54
2023/07/27 06:02:52;;;;;;;2.73;2.50;;;21.40;60.00;21.80;99900.00;;;;6271262;22;20180;-54
2023/07/27 06:05:17;;;;;;;2.90;2.40;;;21.30;59.90;22.00;99892.00;;;;6268778;22;20207;-53
2023/07/27 06:07:43;;;;;;;5.53;2.53;;;21.40;59.90;22.10;99891.00;;;;6242937;22;20149;-53
2023/07/27 06:10:09;;;;;;;2.87;2.50;;;21.40;59.90;22.00;99889.00;;;;6271473;22;20184;-54
2023/07/27 06:12:35;;;;;;;2.40;2.20;;;21.30;59.80;22.00;99894.00;;;;6271782;22;20155;-54
2023/07/27 06:15:01;;;;;;;2.60;2.40;;;21.30;59.80;22.00;99879.00;;;;6270935;22;20156;-54
2023/07/27 06:17:28;;;;;;;2.80;2.50;;;21.30;59.90;22.00;99892.00;;;;6270589;22;20210;-57
2023/07/27 06:19:54;;;;;;;2.80;2.60;;;21.40;60.00;22.00;99878.00;;;;6270717;22;20172;-54
2023/07/27 06:22:19;;;;;;;2.90;2.70;;;21.30;59.80;22.00;99869.00;;;;6269422;22;20149;-54
2023/07/27 06:24:45;;;;;;;2.70;2.30;;;21.30;59.80;22.00;99884.00;;;;6271408;22;20145;-54
2023/07/27 06:27:11;;;;;;;2.80;2.50;;;21.30;59.90;22.00;99878.00;;;;6269372;22;20636;-54
2023/07/27 06:29:36;;;;;;;2.80;2.50;;;21.30;59.90;22.00;99879.00;;;;6271564;22;20180;-54
2023/07/27 06:32:02;;;;;;;2.70;2.50;;;21.30;59.90;22.00;99859.00;;;;6271304;22;20160;-55
2023/07/27 06:34:28;;;;;;;2.50;2.30;;;21.30;59.90;22.00;99880.00;;;;6271201;22;20180;-55
2023/07/27 06:36:54;;;;;;;2.97;2.30;;;21.30;59.90;22.00;99863.00;;;;6270753;22;20470;-54
2023/07/27 06:39:19;;;;;;;2.70;2.50;;;21.30;59.90;22.00;99870.00;;;;6271391;22;20181;-55
2023/07/27 06:41:45;;;;;;;2.70;2.50;;;21.30;59.90;22.00;99855.00;;;;6271742;22;20593;-54
2023/07/27 06:44:11;;;;;;;2.70;2.50;;;21.20;59.80;22.00;99861.00;;;;6271348;22;20149;-55
2023/07/27 06:46:36;;;;;;;2.30;2.10;;;21.30;59.90;22.00;99859.00;;;;6270405;22;20152;-54
2023/07/27 06:49:02;;;;;;;2.30;2.10;;;21.30;59.90;22.00;99855.00;;;;6244359;22;20176;-54
2023/07/27 06:51:28;;;;;;;2.57;2.37;;;21.30;59.90;22.00;99871.00;;;;6269797;22;20180;-54
2023/07/27 06:53:54;;;;;;;2.50;2.30;;;21.20;59.80;21.90;99868.00;;;;6267658;22;20145;-54
2023/07/27 06:56:20;;;;;;;2.70;2.50;;;21.20;60.80;21.90;99868.00;;;;6268581;22;20266;-55
2023/07/27 06:58:46;;;;;;;2.60;2.40;;;21.20;60.00;21.90;99861.00;;;;6271126;22;20238;-54
2023/07/27 07:01:12;;;;;;;2.50;2.20;;;21.20;60.00;21.90;99856.00;;;;6271322;22;20571;-54
2023/07/27 07:03:37;;;;;;;2.30;2.10;;;21.20;60.10;21.90;99862.00;;;;6270048;22;20149;-54
2023/07/27 07:06:03;;;;;;;2.60;2.23;;;21.20;60.00;21.90;99855.00;;;;6269456;22;20145;-55
2023/07/27 07:08:29;;;;;;;2.40;2.20;;;21.20;60.10;21.90;99854.00;;;;6268482;22;20196;-54
2023/07/27 07:10:55;;;;;;;2.40;2.20;;;21.20;60.30;21.90;99839.00;;;;6270783;22;20150;-54
2023/07/27 07:13:21;;;;;;;2.47;2.27;;;21.20;60.30;21.90;99831.00;;;;6269723;22;20157;-54
2023/07/27 07:15:49;;;;;;;2.30;2.10;;;21.20;60.20;21.90;99834.00;;;;6272985;22;20157;-55
2023/07/27 07:18:15;;;;;;;2.73;2.50;;;21.20;60.30;21.90;99832.00;;;;6272944;22;20647;-54
2023/07/27 07:20:40;;;;;;;2.30;2.10;;;21.20;60.30;21.90;99830.00;;;;6271374;22;20161;-54
2023/07/27 07:23:06;;;;;;;2.57;2.20;;;21.20;60.40;21.90;99839.00;;;;6272936;22;20176;-54
2023/07/27 07:25:32;;;;;;;3.10;2.37;;;21.20;60.30;21.80;99826.00;;;;6272408;22;20145;-55
2023/07/27 07:27:58;;;;;;;2.57;2.10;;;21.20;61.00;21.80;99818.00;;;;6273168;22;20152;-54
2023/07/27 07:30:23;;;;;;;2.30;2.10;;;21.20;60.80;21.90;99823.00;;;;6277304;22;20149;-55
2023/07/27 07:32:53;;;;;;;2.60;2.40;;;21.20;60.90;21.90;99843.00;;;;6274261;22;20156;-54
2023/07/27 07:35:20;;;;;;;2.40;2.20;;;21.20;60.80;21.90;99830.00;;;;6272738;22;20149;-54
2023/07/27 07:37:47;;;;;;;2.30;2.10;;;21.20;60.70;21.90;99818.00;;;;6272406;22;20180;-53
2023/07/27 07:40:13;;;;;;;2.40;2.20;;;21.20;60.70;21.90;99805.00;;;;6273709;22;20520;-53
2023/07/27 07:42:39;;;;;;;3.23;2.37;;;21.20;60.60;21.90;99811.00;;;;6273113;22;20141;-54
2023/07/27 07:45:05;;;;;;;2.57;2.37;;;21.20;60.50;21.90;99820.00;;;;6272005;22;20632;-54
2023/07/27 07:47:31;;;;;;;2.20;2.00;;;21.20;60.70;21.90;99817.00;;;;6267721;22;20594;-54
2023/07/27 07:49:58;;;;;;;3.23;2.30;;;21.20;60.70;21.90;99813.00;;;;6270723;22;20175;-54
2023/07/27 07:52:24;;;;;;;2.80;2.10;;;21.20;60.90;21.90;99812.00;;;;6270305;22;20592;-54
2023/07/27 07:54:50;;;;;;;2.17;2.00;;;21.20;60.80;21.90;99811.00;;;;6272293;22;20149;-54
2023/07/27 07:57:19;;;;;;;4.17;2.40;;;21.10;61.00;21.90;99783.00;;;;6270383;22;20159;-54
2023/07/27 07:59:45;;;;;;;2.40;2.20;;;21.20;61.10;21.90;99803.00;;;;6272859;22;20161;-54
2023/07/27 08:02:11;;;;;;;2.60;2.40;;;21.20;61.00;21.90;99819.00;;;;6272088;22;20178;-54
2023/07/27 08:04:37;;;;;;;2.23;1.90;;;21.20;61.10;21.90;99818.00;;;;6271672;22;20145;-54
2023/07/27 08:07:03;;;;;;;2.30;2.10;;;21.10;61.00;21.90;99807.00;;;;6271927;22;20202;-54
2023/07/27 08:09:29;;;;;;;3.53;2.33;;;21.20;61.20;21.90;99796.00;;;;6272495;22;20248;-54
2023/07/27 08:11:55;;;;;;;2.50;2.30;;;21.10;61.30;21.90;99804.00;;;;6272603;22;20149;-55
2023/07/27 08:14:21;;;;;;;2.67;2.17;;;21.20;61.60;21.90;99796.00;;;;6272320;22;20149;-54
2023/07/27 08:16:47;;;;;;;3.00;2.30;;;21.20;61.90;21.90;99795.00;;;;6271782;22;20176;-53
2023/07/27 08:19:12;;;;;;;2.53;2.33;;;21.10;61.90;21.90;99787.00;;;;6272645;22;20509;-54
2023/07/27 08:21:38;;;;;;;2.40;2.20;;;21.10;62.20;21.90;99787.00;;;;6271025;22;20157;-54
2023/07/27 08:24:06;;;;;;;3.50;2.30;;;21.10;62.40;21.90;99800.00;;;;6272921;22;20149;-54
2023/07/27 08:26:31;;;;;;;3.00;2.20;;;21.10;62.40;21.90;99792.00;;;;6271810;22;20201;-55
2023/07/27 08:28:57;;;;;;;2.97;2.30;;;21.10;62.70;21.90;99800.00;;;;6272855;22;20244;-55
2023/07/27 08:31:23;;;;;;;2.83;2.30;;;21.10;62.90;21.90;99805.00;;;;6272209;22;20487;-54
2023/07/27 08:33:49;;;;;;;2.50;2.30;;;21.10;63.40;21.90;99788.00;;;;6272518;22;20678;-55
2023/07/27 08:36:14;;;;;;;3.13;2.30;;;21.10;63.30;21.90;99781.00;;;;6272620;22;20525;-55
2023/07/27 08:38:40;;;;;;;3.33;2.27;;;21.20;63.80;21.90;99784.00;;;;6272299;22;20558;-54
2023/07/27 08:41:06;;;;;;;2.43;2.23;;;21.20;63.70;21.90;99784.00;;;;6272650;22;20615;-55
2023/07/27 08:43:32;;;;;;;2.50;2.30;;;21.20;63.90;21.90;99790.00;;;;6272171;22;20145;-55
2023/07/27 08:45:58;;;;;;;2.37;2.17;;;21.20;64.00;21.90;99791.00;;;;6270787;22;20606;-53
2023/07/27 08:48:24;;;;;;;2.30;2.10;;;21.10;63.90;21.80;99786.00;;;;6272124;22;20173;-53
2023/07/27 08:50:50;;;;;;;4.53;2.53;;;21.10;64.10;21.80;99777.00;;;;6272391;22;20279;-53
2023/07/27 08:53:17;;;;;;;3.17;2.40;;;21.10;63.90;21.90;99775.00;;;;6271972;22;20195;-53
2023/07/27 08:55:43;;;;;;;2.70;2.20;;;21.10;63.80;21.80;99770.00;;;;6271900;22;20149;-54
2023/07/27 08:58:10;;;;;;;2.33;2.13;;;21.10;63.70;21.80;99774.00;;;;6271855;22;20468;-53
2023/07/27 09:00:38;;;;;;;4.73;2.40;;;21.10;63.70;21.80;99783.00;;;;6272055;22;20187;-53
2023/07/27 09:03:04;;;;;;;4.20;2.37;;;21.10;63.60;21.80;99786.00;;;;6267874;22;20149;-53
2023/07/27 09:05:39;;;;;;;2.63;2.20;;;21.10;64.30;21.80;99792.00;;;;6270739;22;20145;-54
2023/07/27 09:08:10;;;;;;;3.93;2.37;;;21.10;64.00;21.80;99790.00;;;;6271372;22;20255;-55
2023/07/27 09:10:37;;;;;;;2.47;2.27;;;21.10;64.00;21.80;99783.00;;;;6271979;22;20155;-56
2023/07/27 09:13:03;;;;;;;2.20;2.00;;;21.10;63.90;21.80;99782.00;;;;6272061;22;20716;-55
2023/07/27 09:15:29;;;;;;;2.67;2.17;;;21.10;63.70;21.80;99773.00;;;;6271489;22;20158;-57
2023/07/27 09:17:58;;;;;;;3.23;2.13;;;21.10;63.60;21.80;99779.00;;;;6272356;22;20208;-56
2023/07/27 09:20:24;;;;;;;3.53;2.13;;;21.10;63.60;21.80;99758.00;;;;6268720;22;20252;-56
2023/07/27 09:22:50;;;;;;;2.50;2.30;;;21.10;63.50;21.80;99768.00;;;;6269785;22;20175;-55
2023/07/27 09:25:20;;;;;;;2.27;2.07;;;21.10;63.30;21.80;99787.00;;;;6270759;22;20145;-55
2023/07/27 09:27:46;;;;;;;4.23;2.20;;;21.10;63.40;21.80;99777.00;;;;6270762;22;20145;-57
2023/07/27 09:30:12;;;;;;;2.93;2.30;;;21.10;63.30;21.80;99768.00;;;;6272335;22;20469;-56
2023/07/27 09:32:38;;;;;;;2.37;2.00;;;21.10;63.90;21.80;99783.00;;;;6274734;22;20148;-57
2023/07/27 09:35:06;;;;;;;4.17;2.20;;;21.10;63.60;21.80;99769.00;;;;6272690;22;20195;-56
2023/07/27 09:37:31;;;;;;;5.00;2.30;;;21.10;63.50;21.80;99759.00;;;;6272079;22;20145;-56
2023/07/27 09:40:20;;;;;;;6.93;2.47;;;21.10;63.60;21.80;99776.00;;;;6259035;22;20215;-57
2023/07/27 09:42:46;;;;;;;5.20;2.20;;;21.10;63.60;21.80;99767.00;;;;6270961;22;20517;-56
2023/07/27 09:45:13;;;;;;;5.83;2.30;;;21.10;63.50;21.80;99779.00;;;;6272086;22;20152;-56
2023/07/27 09:47:39;;;;;;;3.80;2.20;;;21.10;64.30;21.80;99769.00;;;;6270066;22;20145;-56
2023/07/27 09:50:06;;;;;;;4.03;2.10;;;21.10;63.60;21.80;99771.00;;;;6271705;22;20160;-57
2023/07/27 09:52:32;;;;;;;3.80;2.30;;;21.10;63.60;21.80;99773.00;;;;6245764;22;20152;-56
2023/07/27 09:54:58;;;;;;;2.80;2.50;;;21.10;63.50;21.80;99779.00;;;;6270586;22;20613;-55
2023/07/27 09:57:26;;;;;;;8.77;2.23;;;21.10;63.60;21.80;99782.00;;;;6270420;22;20224;-56
2023/07/27 09:59:51;;;;;;;2.53;2.00;;;21.00;63.50;21.80;99776.00;;;;6269036;22;20557;-56
2023/07/27 10:02:17;;;;;;;2.30;2.10;;;21.00;63.50;21.80;99776.00;;;;6271676;22;20145;-55
2023/07/27 10:04:45;;;;;;;2.77;2.47;;;21.00;63.50;21.80;99774.00;;;;6271569;22;20144;-56
2023/07/27 10:07:11;;;;;;;2.23;2.00;;;21.00;63.40;21.70;99769.00;;;;6244833;22;20223;-55
2023/07/27 10:09:36;;;;;;;4.30;2.30;;;21.00;63.40;21.80;99774.00;;;;6244197;22;20172;-56
2023/07/27 10:12:04;;;;;;;2.27;2.07;;;21.00;63.20;21.80;99761.00;;;;6271458;22;20176;-56
2023/07/27 10:14:30;;;;;;;2.53;2.17;;;21.00;63.30;21.80;99767.00;;;;6271613;22;20159;-56
2023/07/27 10:17:07;;;;;;;3.80;2.00;;;21.00;63.60;21.80;99766.00;;;;6244550;22;20163;-56
2023/07/27 10:19:51;;;;;;;2.73;2.03;;;21.00;63.70;21.80;99747.00;;;;6271245;22;20635;-56
2023/07/27 10:22:18;;;;;;;7.27;2.10;;;21.10;63.90;21.80;99774.00;;;;6269611;22;20140;-57
2023/07/27 10:24:52;;;;;;;5.23;2.10;;;21.00;63.90;21.80;99762.00;;;;6271258;22;20153;-55
2023/07/27 10:27:21;;;;;;;3.43;1.80;;;21.00;63.90;21.80;99758.00;;;;6272170;22;20211;-57
2023/07/27 10:30:10;;;;;;;6.23;2.60;;;21.00;64.10;21.80;99754.00;;;;6244456;22;20169;-56
2023/07/27 10:32:36;;;;;;;4.97;2.43;;;21.00;64.10;21.80;99755.00;;;;6253656;22;20156;-56
2023/07/27 10:35:07;;;;;;;4.67;2.63;;;21.00;64.30;21.40;99748.00;;;;6270255;22;20281;-57
2023/07/27 10:37:53;;;;;;;7.40;2.80;;;21.00;64.50;21.70;99757.00;;;;6271529;22;20167;-54
2023/07/27 10:40:26;;;;;;;3.47;2.77;;;21.00;64.70;21.70;99746.00;;;;6270914;22;20153;-54
2023/07/27 10:42:58;;;;;;;3.57;3.13;;;21.00;65.00;21.70;99745.00;;;;6271347;22;20156;-57
2023/07/27 10:45:25;;;;;;;4.20;2.97;;;21.00;65.20;21.80;99749.00;;;;6271224;22;20152;-56
2023/07/27 10:47:58;;;;;;;4.27;2.90;;;21.00;65.30;21.80;99756.00;;;;6271340;22;20712;-56
2023/07/27 10:50:24;;;;;;;4.33;3.00;;;21.00;65.20;21.70;99753.00;;;;6269166;22;20667;-56